Terminal Aerodrome Forecast
Issued by NWS

Current Version | Previous Version | Text Only | Print | Product List | Glossary On
Versions: 1 2 3 4 5 6 7 8 9 10 11 12 13
000
FTUS45 KLKN 262334
TAFELY
TAF
KELY 262334Z 2700/2724 20009KT P6SM SCT060 BKN080
     FM270900 20007KT P6SM VCSH SCT050 BKN090 OVC150
     FM271800 33013G23KT P6SM -SHRASN SCT025 BKN040=

USA.gov is the U.S. government's official web portal to all federal, state and local government web resources and services.